Time;durP1;ratioP1;P1;durP2;ratioP2;P2;SDS_P1;SDS_P2;PMS_P1;PMS_P2;Temp;Humidity;BMP_temperature;BMP_pressure;BME280_temperature;BME280_humidity;BME280_pressure;Samples;Min_cycle;Max_cycle;Signal;HPM_P1;HPM_P2
2024/04/13 00:00:58;;;;;;;5.38;3.25;;;;;;;25.26;40.31;102476.16;4552032;26;20016;-60
2024/04/13 00:03:00;;;;;;;;;;;;;;;25.24;40.30;102468.19;4572809;25;20001;-60
2024/04/13 00:05:02;;;;;;;6.22;3.45;;;;;;;25.22;40.97;102469.28;4555131;26;19924;-60
2024/04/13 00:07:04;;;;;;;6.03;3.47;;;;;;;25.23;40.47;102471.84;4565398;26;20349;-60
2024/04/13 00:09:06;;;;;;;6.43;3.60;;;;;;;25.23;40.81;102468.31;4567312;26;20002;-60
2024/04/13 00:11:08;;;;;;;5.68;3.38;;;;;;;25.23;40.35;102469.16;4549061;26;20021;-60
2024/04/13 00:13:10;;;;;;;6.97;3.63;;;;;;;25.18;40.96;102449.78;4572044;25;20006;-61
2024/04/13 00:15:12;;;;;;;6.70;3.25;;;;;;;25.22;40.36;102456.66;4557585;25;20002;-60
2024/04/13 00:17:15;;;;;;;5.85;3.30;;;;;;;25.25;40.86;102460.97;4562888;26;20036;-61
2024/04/13 00:19:16;;;;;;;6.25;3.33;;;;;;;25.22;41.08;102453.97;4569014;25;20016;-59
2024/04/13 00:21:18;;;;;;;6.47;3.65;;;;;;;25.24;40.54;102453.84;4551101;25;20006;-62
2024/04/13 00:23:20;;;;;;;;;;;;;;;25.25;40.49;102456.44;4594288;25;20037;-61
2024/04/13 00:25:22;;;;;;;6.40;3.53;;;;;;;25.22;40.32;102445.88;4575299;25;19930;-61
2024/04/13 00:27:23;;;;;;;;;;;;;;;25.25;40.76;102445.69;4553397;26;20006;-61
2024/04/13 00:29:25;;;;;;;6.30;3.70;;;;;;;25.23;40.99;102450.31;4541951;26;19956;-61
2024/04/13 00:31:27;;;;;;;6.22;3.45;;;;;;;25.22;40.49;102436.97;4555212;25;20002;-61
2024/04/13 00:33:29;;;;;;;6.38;3.35;;;;;;;25.24;40.79;102440.38;4541212;26;20038;-61
2024/04/13 00:35:32;;;;;;;5.63;3.40;;;;;;;25.22;40.73;102429.72;4549210;26;20013;-60
2024/04/13 00:37:36;;;;;;;6.03;3.42;;;;;;;25.24;40.83;102435.00;4553474;26;20348;-60
2024/04/13 00:39:38;;;;;;;7.30;2.85;;;;;;;25.23;40.66;102436.84;4540632;26;20022;-61
2024/04/13 00:41:40;;;;;;;;;;;;;;;25.22;40.85;102429.72;4548884;25;20006;-60
2024/04/13 00:43:42;;;;;;;6.43;3.60;;;;;;;25.16;40.92;102425.63;4541082;26;19935;-60
2024/04/13 00:45:45;;;;;;;5.53;3.20;;;;;;;25.22;40.85;102426.19;4546811;26;20020;-61
2024/04/13 00:47:47;;;;;;;5.15;3.13;;;;;;;25.20;40.82;102419.06;4554974;26;20459;-61
2024/04/13 00:49:49;;;;;;;6.22;3.30;;;;;;;25.21;40.57;102422.63;4571332;25;20408;-60
2024/04/13 00:51:52;;;;;;;;;;;;;;;25.23;40.69;102423.38;4551050;25;20006;-62
2024/04/13 00:53:55;;;;;;;6.60;3.42;;;;;;;25.22;40.43;102418.97;4568967;26;19934;-60
2024/04/13 00:56:00;;;;;;;6.88;3.38;;;;;;;25.23;40.97;102419.84;4566621;26;20006;-60
2024/04/13 00:58:02;;;;;;;5.45;2.85;;;;;;;25.19;40.44;102411.13;4553928;26;20006;-61
2024/04/13 01:00:12;;;;;;;5.20;2.97;;;;;;;25.21;40.86;102414.53;4571262;25;20037;-60
2024/04/13 01:02:18;;;;;;;5.45;2.97;;;;;;;25.24;40.29;102413.44;4549904;25;20005;-60
2024/04/13 01:04:21;;;;;;;7.15;2.95;;;;;;;25.23;40.62;102412.59;4570872;26;20001;-61
2024/04/13 01:06:23;;;;;;;5.50;2.83;;;;;;;25.22;40.42;102410.03;4565222;25;20033;-61
2024/04/13 01:08:28;;;;;;;5.38;2.65;;;;;;;25.20;40.27;102410.13;4553735;26;20006;-62
2024/04/13 01:10:30;;;;;;;5.68;3.13;;;;;;;25.17;40.82;102407.66;4571432;25;20001;-61
2024/04/13 01:12:32;;;;;;;7.05;3.13;;;;;;;25.19;41.11;102411.97;4550075;25;20002;-61
2024/04/13 01:14:35;;;;;;;6.25;2.70;;;;;;;25.20;40.56;102416.38;4569092;26;20014;-61
2024/04/13 01:16:38;;;;;;;4.53;2.70;;;;;;;25.21;40.57;102419.94;4566604;25;20001;-61
2024/04/13 01:18:40;;;;;;;4.40;2.53;;;;;;;25.21;40.30;102411.84;4554397;26;20466;-60
2024/04/13 01:20:43;;;;;;;6.18;2.58;;;;;;;25.19;40.59;102411.13;4573899;25;20005;-61
2024/04/13 01:22:47;;;;;;;5.57;2.70;;;;;;;25.21;40.49;102409.16;4580893;25;20076;-61
2024/04/13 01:24:50;;;;;;;6.40;2.97;;;;;;;25.22;40.72;102416.25;4577534;25;20002;-60
2024/04/13 01:26:52;;;;;;;4.75;2.50;;;;;;;25.22;40.29;102410.03;4571070;25;20009;-60
2024/04/13 01:28:55;;;;;;;7.97;3.30;;;;;;;25.18;41.06;102409.38;4553602;26;20069;-60
2024/04/13 01:30:57;;;;;;;4.60;2.50;;;;;;;25.22;41.20;102412.72;4572038;26;20403;-61
2024/04/13 01:32:59;;;;;;;5.43;2.53;;;;;;;25.21;40.79;102414.53;4559883;26;20402;-61
2024/04/13 01:35:09;;;;;;;4.57;2.47;;;;;;;25.21;40.51;102411.84;4548953;25;20002;-61
2024/04/13 01:37:11;;;;;;;4.55;2.22;;;;;;;25.19;40.66;102408.44;4545225;26;20517;-61
2024/04/13 01:39:14;;;;;;;8.13;3.10;;;;;;;25.19;40.99;102409.28;4553390;26;20002;-61
2024/04/13 01:41:16;;;;;;;5.28;2.70;;;;;;;25.17;40.41;102397.75;4573680;25;20001;-61
2024/04/13 01:43:18;;;;;;;6.68;2.70;;;;;;;25.18;40.87;102398.63;4556681;25;20002;-61
2024/04/13 01:45:23;;;;;;;5.05;2.72;;;;;;;25.17;40.62;102403.13;4566593;26;20006;-62
2024/04/13 01:47:25;;;;;;;5.63;2.85;;;;;;;25.16;40.86;102395.16;4570636;25;20014;-61
2024/04/13 01:49:27;;;;;;;;;;;;;;;25.17;40.73;102396.88;4553357;25;20005;-60
2024/04/13 01:51:29;;;;;;;6.43;2.80;;;;;;;25.13;40.89;102396.25;4573533;26;19923;-61
2024/04/13 01:53:31;;;;;;;4.68;2.45;;;;;;;25.16;40.39;102406.78;4558541;26;20077;-60
2024/04/13 01:55:32;;;;;;;4.70;2.38;;;;;;;25.16;40.40;102404.09;4565435;26;20016;-61
2024/04/13 01:57:34;;;;;;;;;;;;;;;25.17;40.40;102408.50;4571422;25;20010;-61
2024/04/13 01:59:36;;;;;;;5.95;2.45;;;;;;;25.11;40.47;102400.88;4552565;25;20373;-61
2024/04/13 02:01:38;;;;;;;;;;;;;;;25.16;40.31;102406.78;4574313;25;20002;-60
2024/04/13 02:03:41;;;;;;;4.53;2.15;;;;;;;25.14;40.70;102402.47;4561504;25;19924;-61
2024/04/13 02:05:43;;;;;;;4.45;2.00;;;;;;;25.13;40.82;102398.94;4562221;26;20001;-61
2024/04/13 02:07:45;;;;;;;5.50;2.22;;;;;;;25.16;40.57;102404.09;4570900;25;20371;-61
2024/04/13 02:09:46;;;;;;;5.57;2.42;;;;;;;25.15;41.05;102398.81;4552091;26;20017;-61
2024/04/13 02:11:48;;;;;;;;;;;;;;;25.16;40.75;102412.16;4574093;25;20021;-61
2024/04/13 02:13:50;;;;;;;3.83;2.10;;;;;;;25.10;40.75;102401.84;4563992;26;19931;-61
2024/04/13 02:15:52;;;;;;;;;;;;;;;25.13;40.29;102411.53;4560207;26;20005;-61
2024/04/13 02:17:53;;;;;;;4.68;2.33;;;;;;;25.08;40.62;102405.63;4573391;26;19923;-61
2024/04/13 02:19:56;;;;;;;4.18;2.47;;;;;;;25.11;40.79;102418.88;4550021;26;20017;-62
2024/04/13 02:21:58;;;;;;;4.03;2.13;;;;;;;25.10;40.84;102412.59;4544789;25;20336;-61
2024/04/13 02:24:00;;;;;;;4.00;2.22;;;;;;;25.12;40.74;102415.22;4582022;25;20029;-61
2024/04/13 02:26:02;;;;;;;4.82;2.15;;;;;;;25.10;40.29;102411.75;4558997;25;20017;-61
2024/04/13 02:28:04;;;;;;;4.35;2.30;;;;;;;25.14;41.04;102413.25;4542652;26;20377;-61
2024/04/13 02:30:07;;;;;;;5.32;2.20;;;;;;;25.14;41.04;102418.63;4561035;26;20372;-61
2024/04/13 02:32:13;;;;;;;5.40;2.30;;;;;;;25.07;41.06;102399.38;4544582;25;20032;-61
2024/04/13 02:34:14;;;;;;;4.75;2.55;;;;;;;25.16;40.84;102411.31;4545183;26;20014;-61
2024/04/13 02:36:17;;;;;;;4.38;2.30;;;;;;;25.13;40.66;102412.41;4560085;25;20014;-60
2024/04/13 02:38:18;;;;;;;5.35;2.08;;;;;;;25.10;40.96;102404.53;4542518;26;20026;-61
2024/04/13 02:40:23;;;;;;;6.05;2.50;;;;;;;25.13;40.48;102409.72;4560993;26;20001;-61
2024/04/13 02:42:25;;;;;;;4.30;2.00;;;;;;;25.13;40.57;102412.41;4545424;25;20078;-61
2024/04/13 02:44:27;;;;;;;;;;;;;;;25.12;40.33;102410.69;4545178;26;20002;-62
2024/04/13 02:46:29;;;;;;;4.13;2.28;;;;;;;25.05;40.37;102401.31;4562739;26;19924;-61
2024/04/13 02:48:31;;;;;;;4.90;1.95;;;;;;;25.10;40.50;102404.53;4542144;26;20397;-61
2024/04/13 02:50:33;;;;;;;3.90;2.20;;;;;;;25.05;40.29;102393.22;4558457;26;20467;-59
2024/04/13 02:52:36;;;;;;;;;;;;;;;25.08;41.09;102406.50;4548812;25;20006;-60
2024/04/13 02:54:38;;;;;;;4.57;2.08;;;;;;;25.03;40.57;102401.44;4542902;26;20280;-61
2024/04/13 02:56:40;;;;;;;4.05;2.15;;;;;;;25.04;40.51;102399.59;4562930;26;20002;-61
2024/04/13 02:58:41;;;;;;;;;;;;;;;25.09;40.37;102399.25;4542962;26;20014;-60
2024/04/13 03:01:13;;;;;;;4.10;2.00;;;;;;;25.10;40.62;102395.59;4556324;26;19930;-61
2024/04/13 03:03:15;;;;;;;5.28;2.55;;;;;;;25.07;40.90;102388.63;4517913;26;20002;-60
2024/04/13 03:05:17;;;;;;;4.47;2.20;;;;;;;25.03;40.81;102389.78;4546074;26;20002;-61
2024/04/13 03:07:18;;;;;;;;;;;;;;;25.10;40.56;102387.53;4560888;25;20071;-60
2024/04/13 03:09:20;;;;;;;4.82;2.20;;;;;;;25.07;40.72;102395.81;4542189;26;19924;-60
2024/04/13 03:11:25;;;;;;;4.50;1.95;;;;;;;25.09;40.23;102396.56;4560516;26;20001;-61
2024/04/13 03:13:27;;;;;;;4.68;2.17;;;;;;;25.07;41.03;102387.72;4545347;25;20013;-61
2024/04/13 03:15:30;;;;;;;5.15;2.15;;;;;;;25.07;40.44;102385.91;4544625;26;20002;-61
2024/04/13 03:17:31;;;;;;;4.63;2.10;;;;;;;25.03;40.80;102379.00;4561905;26;20014;-61
2024/04/13 03:19:33;;;;;;;4.47;1.90;;;;;;;25.06;41.11;102377.97;4541493;26;20006;-61
2024/04/13 03:21:36;;;;;;;;;;;;;;;25.06;40.77;102377.97;4559311;26;20005;-60
2024/04/13 03:23:39;;;;;;;5.70;2.13;;;;;;;25.02;40.83;102371.94;4574430;25;19923;-61
2024/04/13 03:25:41;;;;;;;5.55;2.38;;;;;;;25.01;40.49;102367.50;4569660;25;20352;-61
2024/04/13 03:27:43;;;;;;;;;;;;;;;25.03;40.89;102371.81;4552093;25;20050;-60
2024/04/13 03:29:45;;;;;;;5.47;2.03;;;;;;;24.97;40.54;102364.19;4572499;26;19959;-61
2024/04/13 03:31:47;;;;;;;4.50;2.17;;;;;;;25.01;41.14;102362.97;4554938;26;20017;-60
2024/04/13 03:33:49;;;;;;;4.60;2.20;;;;;;;25.01;40.58;102354.91;4565993;26;20002;-60
2024/04/13 03:35:51;;;;;;;6.55;2.30;;;;;;;25.03;41.00;102354.78;4569726;25;20021;-61
2024/04/13 03:37:56;;;;;;;;;;;;;;;25.05;40.91;102358.25;4552123;25;20037;-60
2024/04/13 03:39:58;;;;;;;5.20;2.20;;;;;;;25.00;41.14;102349.63;4572561;25;19924;-60
2024/04/13 03:42:00;;;;;;;4.15;1.90;;;;;;;25.01;40.81;102352.22;4558766;25;20010;-60
2024/04/13 03:44:02;;;;;;;;;;;;;;;25.05;40.99;102355.53;4562891;26;20462;-61
2024/04/13 03:46:04;;;;;;;4.72;2.33;;;;;;;25.02;40.57;102351.25;4569312;26;19923;-61
2024/04/13 03:48:06;;;;;;;4.15;1.80;;;;;;;25.02;40.46;102350.41;4561525;25;20347;-61
2024/04/13 03:50:09;;;;;;;4.85;2.13;;;;;;;25.00;40.51;102347.78;4540248;26;20003;-60
2024/04/13 03:52:14;;;;;;;4.93;2.08;;;;;;;25.02;40.53;102345.00;4552041;26;20005;-60
2024/04/13 03:54:15;;;;;;;;;;;;;;;25.00;40.23;102345.09;4553909;25;20037;-61
2024/04/13 03:56:17;;;;;;;3.97;1.85;;;;;;;24.98;41.08;102347.06;4542106;26;19992;-61
2024/04/13 03:58:19;;;;;;;4.90;2.15;;;;;;;24.98;40.65;102339.00;4563096;26;20013;-60
2024/04/13 04:00:21;;;;;;;5.05;1.80;;;;;;;24.98;40.58;102340.81;4541515;26;20006;-60
2024/04/13 04:02:23;;;;;;;4.57;2.10;;;;;;;24.98;40.42;102338.13;4548761;26;20076;-60
2024/04/13 04:04:24;;;;;;;5.72;2.42;;;;;;;24.98;40.74;102339.00;4556400;25;20348;-60
2024/04/13 04:06:26;;;;;;;;;;;;;;;25.00;40.39;102339.72;4542192;26;20006;-60
2024/04/13 04:08:28;;;;;;;3.50;1.88;;;;;;;24.98;40.90;102339.00;4563126;26;20215;-59
2024/04/13 04:10:30;;;;;;;;;;;;;;;25.00;40.95;102338.88;4542824;25;20010;-59
2024/04/13 04:12:35;;;;;;;3.78;1.85;;;;;;;24.98;40.79;102338.13;4546908;26;20377;-60
2024/04/13 04:14:37;;;;;;;4.32;2.10;;;;;;;24.99;40.31;102335.31;4558207;26;20079;-60
2024/04/13 04:16:44;;;;;;;4.03;1.95;;;;;;;24.98;40.70;102328.22;4540893;26;20021;-60
2024/04/13 04:18:46;;;;;;;3.38;1.80;;;;;;;25.01;40.55;102337.91;4562056;26;20050;-61
2024/04/13 04:20:48;;;;;;;;;;;;;;;25.00;40.33;102339.72;4543255;26;20002;-61
2024/04/13 04:22:51;;;;;;;4.32;1.90;;;;;;;24.97;41.07;102341.78;4549132;25;20397;-60
2024/04/13 04:24:53;;;;;;;4.43;1.90;;;;;;;24.95;40.30;102333.81;4559457;25;20348;-60
2024/04/13 04:26:55;;;;;;;3.90;1.90;;;;;;;24.96;40.54;102335.53;4541261;26;20456;-60
2024/04/13 04:28:56;;;;;;;4.03;1.98;;;;;;;24.94;40.43;102336.63;4559476;26;20005;-60
2024/04/13 04:31:11;;;;;;;4.85;1.95;;;;;;;24.97;40.99;102334.56;4544734;25;20467;-60
2024/04/13 04:33:15;;;;;;;4.22;2.00;;;;;;;24.93;40.73;102327.66;4546386;26;20071;-60
2024/04/13 04:35:17;;;;;;;4.07;1.90;;;;;;;24.95;41.05;102330.28;4558285;25;20456;-60
2024/04/13 04:37:19;;;;;;;5.10;2.10;;;;;;;24.93;40.77;102319.59;4539542;26;20015;-60
2024/04/13 04:39:20;;;;;;;;;;;;;;;24.96;41.22;102334.66;4560886;26;20033;-59
2024/04/13 04:41:22;;;;;;;5.72;2.20;;;;;;;24.86;40.58;102313.81;4544049;25;20251;-60
2024/04/13 04:43:24;;;;;;;;;;;;;;;24.96;40.85;102331.97;4543710;26;20459;-60
2024/04/13 04:45:26;;;;;;;4.20;2.15;;;;;;;24.94;40.92;102325.84;4549237;26;20012;-60
2024/04/13 04:47:28;;;;;;;6.57;2.08;;;;;;;24.92;41.18;102323.25;4571484;25;20001;-60
2024/04/13 04:49:30;;;;;;;;;;;;;;;24.97;40.62;102331.00;4554837;25;20469;-59
2024/04/13 04:51:32;;;;;;;4.18;1.70;;;;;;;24.94;41.04;102325.84;4565628;26;19923;-60
2024/04/13 04:53:34;;;;;;;;;;;;;;;24.94;41.17;102320.47;4567648;26;20329;-60
2024/04/13 04:55:36;;;;;;;4.57;2.17;;;;;;;24.83;40.78;102313.16;4550537;26;20272;-60
2024/04/13 04:57:38;;;;;;;4.13;2.15;;;;;;;24.91;41.06;102321.56;4571360;26;20016;-59
2024/04/13 04:59:40;;;;;;;5.00;2.00;;;;;;;24.91;40.45;102329.63;4556552;25;20021;-61
2024/04/13 05:01:42;;;;;;;4.28;2.00;;;;;;;24.92;40.46;102338.56;4562552;26;20011;-59
2024/04/13 05:03:45;;;;;;;4.45;2.25;;;;;;;24.91;40.92;102336.81;4568333;25;20016;-60
2024/04/13 05:05:47;;;;;;;5.90;2.10;;;;;;;24.92;41.06;102338.56;4550542;25;20077;-61
2024/04/13 05:07:50;;;;;;;5.55;2.35;;;;;;;24.85;40.92;102333.59;4570946;25;20017;-59
2024/04/13 05:09:54;;;;;;;4.00;2.10;;;;;;;24.85;40.85;102325.53;4558297;26;20071;-59
2024/04/13 05:11:56;;;;;;;;;;;;;;;24.92;40.88;102339.41;4561208;26;20013;-60
2024/04/13 05:13:58;;;;;;;6.05;2.17;;;;;;;24.91;41.08;102335.00;4568713;25;19993;-59
2024/04/13 05:15:59;;;;;;;;;;;;;;;24.92;40.85;102341.25;4561378;26;20010;-60
2024/04/13 05:18:03;;;;;;;4.45;2.58;;;;;;;24.90;40.65;102335.09;4540763;26;19931;-61
2024/04/13 05:20:05;;;;;;;5.55;2.55;;;;;;;24.88;40.90;102330.69;4550005;26;20006;-61
2024/04/13 05:22:07;;;;;;;6.85;3.53;;;;;;;24.91;40.26;102337.72;4560843;25;20021;-60
2024/04/13 05:24:09;;;;;;;;;;;;;;;24.92;40.27;102335.84;4601451;25;20012;-61
2024/04/13 05:26:11;;;;;;;;;;;;;;;24.88;41.20;102332.53;4548401;26;19932;-60
2024/04/13 05:28:13;;;;;;;5.15;2.80;;;;;;;24.86;40.60;102331.75;4570694;26;20322;-61
2024/04/13 05:30:15;;;;;;;8.27;3.22;;;;;;;24.85;40.86;102330.06;4562987;25;20005;-61
2024/04/13 05:32:18;;;;;;;9.13;3.50;;;;;;;24.86;40.63;102329.94;4562011;26;20001;-60
2024/04/13 05:34:20;;;;;;;6.10;3.38;;;;;;;24.87;41.19;102337.06;4570767;25;20069;-60
2024/04/13 05:36:22;;;;;;;6.75;3.53;;;;;;;24.86;40.94;102343.41;4549106;25;20034;-60
2024/04/13 05:38:24;;;;;;;5.88;3.63;;;;;;;24.88;40.51;102352.22;4567830;26;20417;-60
2024/04/13 05:40:26;;;;;;;;;;;;;;;24.88;40.62;102354.91;4566550;25;20001;-60
2024/04/13 05:42:27;;;;;;;7.18;3.97;;;;;;;24.87;40.83;102357.72;4552533;26;19930;-60
2024/04/13 05:44:29;;;;;;;;;;;;;;;24.88;40.99;102368.34;4571222;25;20009;-60
2024/04/13 05:46:31;;;;;;;6.90;4.13;;;;;;;24.86;41.14;102364.06;4551636;25;19936;-60
2024/04/13 05:48:33;;;;;;;;;;;;;;;24.87;40.70;102366.66;4566465;25;20350;-60
2024/04/13 05:50:35;;;;;;;;;;;;;;;24.87;40.59;102365.78;4568406;25;19995;-61
2024/04/13 05:52:37;;;;;;;6.93;4.07;;;;;;;24.82;41.24;102362.56;4549814;26;20326;-60
2024/04/13 05:54:39;;;;;;;7.80;3.70;;;;;;;24.87;41.07;102365.78;4570699;25;20001;-60
2024/04/13 05:56:41;;;;;;;7.63;4.13;;;;;;;24.83;41.04;102361.59;4554411;25;20013;-61
2024/04/13 05:58:42;;;;;;;;;;;;;;;24.86;40.73;102364.06;4563531;26;19998;-61
2024/04/13 06:00:46;;;;;;;8.45;4.57;;;;;;;24.83;40.93;102366.97;4567522;26;19932;-60
2024/04/13 06:02:48;;;;;;;6.22;3.90;;;;;;;24.83;41.05;102366.97;4549837;25;20013;-61
2024/04/13 06:04:50;;;;;;;7.03;3.83;;;;;;;24.82;40.36;102362.56;4572660;25;20041;-61
2024/04/13 06:06:52;;;;;;;6.32;3.80;;;;;;;24.84;40.85;102357.94;4559739;26;20017;-60
2024/04/13 06:08:54;;;;;;;7.75;4.18;;;;;;;24.81;40.53;102364.41;4563584;26;20013;-61
2024/04/13 06:10:56;;;;;;;6.80;3.72;;;;;;;24.80;40.95;102361.81;4570603;25;20047;-61
2024/04/13 06:12:58;;;;;;;7.07;4.05;;;;;;;24.81;40.36;102366.22;4552202;25;20002;-61
2024/04/13 06:15:00;;;;;;;6.90;3.70;;;;;;;24.84;40.56;102357.94;4573300;26;20001;-61
2024/04/13 06:17:02;;;;;;;7.45;3.92;;;;;;;24.83;40.31;102358.91;4562323;25;20074;-61
2024/04/13 06:19:05;;;;;;;6.35;3.63;;;;;;;24.87;40.72;102368.47;4561041;26;20012;-61
2024/04/13 06:21:07;;;;;;;6.50;3.65;;;;;;;24.84;40.75;102357.94;4571787;25;20017;-61
2024/04/13 06:23:09;;;;;;;;;;;;;;;24.88;40.57;102362.97;4587531;25;20008;-61
2024/04/13 06:25:11;;;;;;;6.35;3.95;;;;;;;24.86;40.70;102354.19;4573151;26;20115;-61
2024/04/13 06:27:13;;;;;;;7.15;3.97;;;;;;;24.87;40.63;102355.03;4564214;25;20006;-61
2024/04/13 06:29:15;;;;;;;;;;;;;;;24.87;40.75;102360.41;4559053;26;20005;-60
2024/04/13 06:31:16;;;;;;;6.25;3.78;;;;;;;24.84;41.33;102356.09;4566865;26;19935;-61
2024/04/13 06:33:18;;;;;;;6.68;4.03;;;;;;;24.85;40.80;102348.91;4564477;26;20001;-60
2024/04/13 06:35:21;;;;;;;7.88;3.80;;;;;;;24.84;40.79;102342.66;4543026;25;20013;-60
2024/04/13 06:37:23;;;;;;;;;;;;;;;24.84;40.34;102342.66;4547850;26;20021;-61
2024/04/13 06:39:25;;;;;;;7.38;4.28;;;;;;;24.81;41.33;102345.56;4560087;25;20255;-61
2024/04/13 06:41:27;;;;;;;7.45;4.10;;;;;;;24.81;40.84;102339.31;4542070;26;20021;-61
2024/04/13 06:43:28;;;;;;;;;;;;;;;24.83;40.69;102348.16;4561991;26;20001;-61
2024/04/13 06:45:30;;;;;;;7.75;4.50;;;;;;;24.80;40.73;102343.84;4545739;25;19931;-61
2024/04/13 06:47:32;;;;;;;8.55;4.10;;;;;;;24.83;40.96;102346.31;4544522;26;20393;-60
2024/04/13 06:49:36;;;;;;;7.80;4.28;;;;;;;24.84;40.56;102350.72;4551298;26;20005;-61
2024/04/13 06:51:38;;;;;;;6.75;3.67;;;;;;;24.86;40.91;102342.53;4572901;25;20016;-61
2024/04/13 06:53:40;;;;;;;;;;;;;;;24.87;41.20;102352.31;4556060;25;20006;-61
2024/04/13 06:55:42;;;;;;;6.63;3.75;;;;;;;24.85;41.04;102352.44;4566805;26;19923;-61
2024/04/13 06:57:44;;;;;;;6.45;3.70;;;;;;;24.86;40.47;102348.78;4568376;26;20014;-61
2024/04/13 06:59:46;;;;;;;;;;;;;;;24.87;40.53;102342.44;4552468;25;20002;-60
2024/04/13 07:01:49;;;;;;;7.38;3.50;;;;;;;24.84;41.37;102350.72;4572898;25;20381;-61
2024/04/13 07:03:51;;;;;;;7.05;3.42;;;;;;;24.85;40.47;102349.75;4557951;25;20484;-61
2024/04/13 07:05:56;;;;;;;;;;;;;;;24.85;40.94;102347.06;4564996;26;20077;-60
2024/04/13 07:07:58;;;;;;;6.30;3.30;;;;;;;24.83;41.10;102351.69;4569932;25;19932;-61
2024/04/13 07:10:00;;;;;;;;;;;;;;;24.85;41.39;102351.59;4552515;25;20002;-60
2024/04/13 07:12:02;;;;;;;7.03;3.47;;;;;;;24.82;41.02;102347.25;4572081;26;20264;-60
2024/04/13 07:14:10;;;;;;;6.72;3.20;;;;;;;24.81;40.86;102337.50;4556537;26;20002;-61
2024/04/13 07:16:12;;;;;;;6.45;3.15;;;;;;;24.83;40.92;102338.22;4563141;26;20016;-61
2024/04/13 07:18:15;;;;;;;6.57;3.08;;;;;;;24.84;40.77;102337.25;4569746;25;20002;-61
2024/04/13 07:20:17;;;;;;;6.53;3.20;;;;;;;24.87;41.30;102336.19;4551710;25;20412;-61
2024/04/13 07:22:20;;;;;;;5.68;3.10;;;;;;;24.88;40.85;102335.22;4579268;25;20001;-61
2024/04/13 07:24:22;;;;;;;6.25;3.00;;;;;;;24.88;40.54;102329.84;4575708;25;20013;-60
2024/04/13 07:26:24;;;;;;;5.75;3.00;;;;;;;24.90;41.19;102338.66;4552444;25;20244;-60
2024/04/13 07:28:26;;;;;;;;;;;;;;;24.91;41.23;102335.00;4544676;26;20009;-61
2024/04/13 07:30:27;;;;;;;5.63;3.00;;;;;;;24.91;40.41;102332.31;4562628;25;19924;-61
2024/04/13 07:32:30;;;;;;;5.38;2.90;;;;;;;24.94;40.90;102332.09;4541912;26;20006;-63
2024/04/13 07:34:32;;;;;;;4.57;2.60;;;;;;;24.93;41.34;102329.50;4550685;26;20535;-61
2024/04/13 07:36:33;;;;;;;;;;;;;;;24.97;40.37;102334.56;4555929;26;20364;-60
2024/04/13 07:38:35;;;;;;;6.70;2.90;;;;;;;24.93;40.87;102335.75;4540305;26;19923;-60
2024/04/13 07:40:37;;;;;;;;;;;;;;;24.95;40.38;102333.81;4564565;26;20021;-60
2024/04/13 07:42:39;;;;;;;;;;;;;;;24.92;41.13;102338.56;4542650;26;20352;-61
2024/04/13 07:44:41;;;;;;;5.25;2.70;;;;;;;24.92;40.69;102338.56;4547877;26;19931;-61
2024/04/13 07:46:44;;;;;;;4.93;2.40;;;;;;;24.93;41.43;102334.91;4557928;25;20003;-61
2024/04/13 07:48:47;;;;;;;5.10;2.67;;;;;;;24.93;40.91;102337.59;4541438;26;20002;-61
2024/04/13 07:50:49;;;;;;;5.55;2.72;;;;;;;24.95;40.99;102339.19;4562332;26;20005;-60
2024/04/13 07:52:50;;;;;;;;;;;;;;;24.98;41.34;102340.81;4544108;25;20447;-61
2024/04/13 07:54:52;;;;;;;6.00;2.70;;;;;;;24.94;41.09;102329.41;4545027;26;19924;-61
2024/04/13 07:56:54;;;;;;;5.40;2.80;;;;;;;24.98;40.61;102321.97;4558835;26;20006;-61
2024/04/13 07:58:56;;;;;;;4.80;2.60;;;;;;;25.01;41.03;102325.28;4541678;26;20006;-60
2024/04/13 08:00:58;;;;;;;5.68;2.70;;;;;;;25.02;40.54;102318.09;4559196;26;20138;-61
2024/04/13 08:03:01;;;;;;;7.22;2.90;;;;;;;25.03;40.50;102319.78;4546230;25;20333;-61
2024/04/13 08:05:08;;;;;;;4.47;2.42;;;;;;;25.06;40.66;102316.06;4543806;26;20017;-61
2024/04/13 08:07:10;;;;;;;6.07;2.45;;;;;;;25.02;40.40;102316.25;4521149;26;20014;-61
2024/04/13 08:09:12;;;;;;;;;;;;;;;25.08;41.17;102324.84;4572363;25;20001;-60
2024/04/13 08:11:14;;;;;;;5.72;2.67;;;;;;;25.06;40.80;102324.13;4554559;26;19963;-60
2024/04/13 08:13:16;;;;;;;5.10;2.45;;;;;;;25.06;40.78;102316.91;4566172;26;20006;-60
2024/04/13 08:15:17;;;;;;;;;;;;;;;25.06;40.50;102327.66;4569801;25;20451;-61
2024/04/13 08:17:22;;;;;;;5.22;2.53;;;;;;;25.02;41.15;102318.94;4551467;25;19923;-60
2024/04/13 08:19:24;;;;;;;5.18;2.50;;;;;;;25.03;40.35;102315.28;4571955;25;20006;-61
2024/04/13 08:21:26;;;;;;;6.25;2.78;;;;;;;25.04;40.75;102324.22;4556814;25;20002;-61
2024/04/13 08:23:28;;;;;;;4.65;2.40;;;;;;;25.06;40.75;102311.50;4566769;25;20006;-61
2024/04/13 08:25:30;;;;;;;4.50;2.33;;;;;;;25.06;41.33;102322.28;4568788;25;20020;-60
2024/04/13 08:27:33;;;;;;;;;;;;;;;25.10;40.97;102314.84;4549566;26;20076;-61
2024/04/13 08:29:35;;;;;;;6.10;2.40;;;;;;;25.09;40.37;102316.66;4571397;25;19923;-60
2024/04/13 08:31:37;;;;;;;;;;;;;;;25.11;40.98;102308.50;4557559;25;20014;-61
2024/04/13 08:33:39;;;;;;;;;;;;;;;25.10;40.34;102310.31;4563740;26;19923;-61
2024/04/13 08:35:41;;;;;;;5.10;2.40;;;;;;;25.09;40.39;102305.03;4569011;26;19963;-61
2024/04/13 08:37:46;;;;;;;5.10;2.50;;;;;;;25.13;40.59;102306.53;4560649;26;20005;-61
2024/04/13 08:39:47;;;;;;;;;;;;;;;25.15;40.52;102309.97;4541533;26;20313;-61
2024/04/13 08:42:22;;;;;;;5.55;2.20;;;;;;;25.13;41.18;102309.22;4550648;26;19952;-60
2024/04/13 08:44:25;;;;;;;6.20;2.25;;;;;;;25.12;41.19;102303.00;4453029;26;20008;-61
2024/04/13 08:46:28;;;;;;;3.63;2.03;;;;;;;25.15;40.55;102294.69;4451267;26;20008;-61
2024/04/13 08:48:31;;;;;;;6.10;2.33;;;;;;;25.16;40.38;102303.63;4468473;26;20015;-61
2024/04/13 08:50:35;;;;;;;4.35;2.20;;;;;;;25.12;40.96;102296.75;4449367;26;20133;-61
2024/04/13 08:52:37;;;;;;;5.30;2.20;;;;;;;25.15;41.03;102300.09;4464623;26;20084;-61
2024/04/13 08:54:39;;;;;;;5.07;2.20;;;;;;;25.13;40.63;102291.25;4454350;26;20011;-61
2024/04/13 08:56:47;;;;;;;5.50;2.25;;;;;;;25.13;41.00;102291.25;4451120;26;20126;-61
2024/04/13 08:58:51;;;;;;;5.50;2.05;;;;;;;25.13;40.37;102285.88;4468737;26;20081;-60
2024/04/13 09:00:59;;;;;;;5.13;2.30;;;;;;;25.07;40.09;102263.91;4448857;26;20000;-60
2024/04/13 09:03:02;;;;;;;3.88;1.85;;;;;;;25.13;40.97;102277.78;4465513;26;20015;-61
2024/04/13 09:05:07;;;;;;;5.28;2.28;;;;;;;25.15;40.81;102283.06;4453336;26;20109;-61
2024/04/13 09:07:09;;;;;;;5.88;1.95;;;;;;;25.17;40.83;102276.59;4452403;26;20030;-61
2024/04/13 09:09:13;;;;;;;4.90;2.13;;;;;;;25.19;40.77;102281.88;4467529;26;20004;-59
2024/04/13 09:11:15;;;;;;;3.70;2.03;;;;;;;25.16;40.77;102274.00;4448809;26;20031;-61
2024/04/13 09:13:18;;;;;;;4.80;2.00;;;;;;;25.19;40.90;102280.03;4464014;26;20000;-61
2024/04/13 09:15:19;;;;;;;4.57;2.05;;;;;;;25.21;41.06;102285.28;4462522;26;20004;-61
2024/04/13 09:17:21;;;;;;;;;;;;;;;25.22;40.83;102281.63;4462396;26;20036;-61
2024/04/13 09:19:23;;;;;;;6.82;2.38;;;;;;;25.20;40.36;102280.88;4458036;26;19925;-59
2024/04/13 09:21:26;;;;;;;4.43;2.08;;;;;;;25.18;40.57;102275.63;4539653;26;20078;-62
2024/04/13 09:23:29;;;;;;;5.97;2.38;;;;;;;25.18;40.71;102270.22;4547905;25;20440;-60
2024/04/13 09:25:30;;;;;;;5.25;2.03;;;;;;;25.19;40.76;102271.94;4569694;25;20013;-60
2024/04/13 09:27:34;;;;;;;3.97;2.10;;;;;;;25.19;40.95;102263.03;4567582;25;20002;-61
2024/04/13 09:29:36;;;;;;;6.05;2.00;;;;;;;25.23;41.21;102271.75;4563088;26;20468;-60
2024/04/13 09:31:39;;;;;;;;;;;;;;;25.26;40.29;102263.41;4552314;26;20016;-61
2024/04/13 09:33:50;;;;;;;6.05;1.98;;;;;;;25.24;40.42;102268.94;4558893;25;19923;-60
2024/04/13 09:36:01;;;;;;;5.47;1.92;;;;;;;25.26;41.14;102261.56;4546886;25;20006;-60
2024/04/13 09:38:03;;;;;;;7.53;2.38;;;;;;;25.26;40.59;102256.19;4541232;26;20001;-61
2024/04/13 09:40:06;;;;;;;9.20;2.30;;;;;;;25.30;40.43;102257.69;4561535;26;20089;-62
2024/04/13 09:42:09;;;;;;;6.28;2.17;;;;;;;25.28;40.75;102251.56;4560248;26;20001;-63